Chicopee, MA (01014)

12:40 PM EDT on May 25, 2015 (GMT -0400)
Alpert Park | | Change Station
CLOSE
Current Station
Personal Weather Station
Location: Chicopee, MA
Elevation: 217 ft
Nearby Weather Stations

Elev 217 ft 42.15 °N, 72.57 °W | Updated 2 seconds ago

Overcast
Overcast
71.4 °F
Feels Like 75 °F
N
0.0
Wind Variable Wind from WNW
Gusts 0.0 mph

Today
High -- | Low -- °F
--% Chance of Precip.
Yesterday
High -- | Low -- °F
Precip. -- in
5:20 AM 8:13 PM
Waxing Crescent, 50% visible
Pressure 30.25 in
Visibility 10.0 miles
Clouds Mostly Cloudy 11000 ft
Overcast 19000 ft
Heat Index 75 °F
Dew Point 59 °F
Humidity 66%
Rainfall 0.00 in
Snow Depth Not available.
UV 3 out of 12
Pollen 8.90 out of 12
Air Quality Not available.
Flu Activity Local Activity
METAR KCEF 251558Z 16004KT 10SM BKN110 OVC190 21/13 A3023 RMK AO2A SLP242 T02120130

More Conditions Fewer Conditions

Pressure 30.25 in
Visibility 10.0 miles
Clouds Mostly Cloudy 11000 ft
Overcast 19000 ft
Heat Index 75 °F
Dew Point 59 °F
Humidity 66%
Rainfall 0.00 in
Snow Depth Not available.
UV 3 out of 12
Pollen 8.90 out of 12
Air Quality Not available.
Flu Activity Local Activity
METAR KCEF 251558Z 16004KT 10SM BKN110 OVC190 21/13 A3023 RMK AO2A SLP242 T02120130

More Conditions Fewer Conditions

10-Day Weather Forecast

Almanac

Astronomy

May. 25, 2015 Rise Set
Actual Time
Civil Twilight
Nautical Twilight
Astronomical Twilight
Moon
Length of Visible Light
Length of Day
Tomorrow will be .
, % of the Moon is Illuminated

Today's Extremes

State Highs State Lows

Community

WunderPhotos

Upload Photos

1,824,057 photos uploaded!

WunderBlogs® & News

Nearby

Air Quality

  Air Quality AQ Index Pollutant
Not available.

Snow Depth

Station Depth Elevation

Earthquake Activity

City Distance Mag. Time & Date
Minimum magnitude displayed is 2.5.

Coastal Water Temperatures

Place Temperature

Stations

Nearby Weather Stations

Station Location Temp. Windchill Dew Point Humidity Wind Precip. Elev Updated Type